KINT/INT METAR and TAF weather

Enter ICAO airport designator
Station Type Date Time Source
KINT METAR 2021/09/24 02:54 UTC NOAA

KINT 240254Z AUTO 00000KT 10SM CLR 13/09 A3007 RMK AO2 SLP176 T01280089 51017 $


Station Type Date Time Source
KINT Decoded METAR 2021/09/24 02:54 UTC NOAA

WINSTON SALEM SMITH REYNOLDS, NC, United States (KINT) 36-08N 80-14W 291M
Sep 23, 2021 - 10:54 PM EDT / 2021.09.24 0254 UTC
Wind: Calm:0
Visibility: 10 mile(s):0
Sky conditions: clear
Temperature: 55.0 F (12.8 C)
Dew Point: 48.0 F (8.9 C)
Relative Humidity: 77%
Pressure (altimeter): 30.07 in. Hg (1018 hPa)
Pressure tendency: 0.05 inches (1.7 hPa) higher than three hours ago
ob: KINT 240254Z AUTO 00000KT 10SM CLR 13/09 A3007 RMK AO2 SLP176 T01280089 51017
cycle: 3

Station Type Date Time Source
KINT TAF 2021/09/23 18:42 UTC NOAA

TAF KINT 231739Z 2318/2418 33009KT P6SM FEW040

Example: see airport list